Time;durP1;ratioP1;P1;durP2;ratioP2;P2;SDS_P1;SDS_P2;PMS_P1;PMS_P2;Temp;Humidity;BMP_temperature;BMP_pressure;BME280_temperature;BME280_humidity;BME280_pressure;Samples;Min_cycle;Max_cycle;Signal;HPM_P1;HPM_P2
2023/03/12 00:00:25;;;;;;;8.00;3.10;;;;;;;-0.95;95.96;98378.23;109498;1252;73551;-70
2023/03/12 00:03:31;;;;;;;9.10;3.30;;;;;;;-0.92;96.23;98377.19;109760;1250;60079;-72
2023/03/12 00:06:18;;;;;;;8.40;3.00;;;;;;;-0.90;96.22;98377.59;109821;1251;61383;-69
2023/03/12 00:09:05;;;;;;;10.00;2.90;;;;;;;-0.88;96.57;98372.03;109664;1251;72010;-70
2023/03/12 00:11:51;;;;;;;7.50;2.60;;;;;;;-0.88;96.48;98373.61;109706;1251;68817;-69
2023/03/12 00:14:38;;;;;;;10.00;3.40;;;;;;;-0.85;96.29;98370.67;109838;1251;71773;-69
2023/03/12 00:17:24;;;;;;;8.00;2.90;;;;;;;-0.83;95.71;98373.18;109655;1251;58173;-71
2023/03/12 00:20:11;;;;;;;10.30;3.20;;;;;;;-0.83;95.84;98367.62;109850;1250;60267;-71
2023/03/12 00:22:58;;;;;;;8.90;3.10;;;;;;;-0.83;95.82;98369.49;109665;1250;74127;-70
2023/03/12 00:25:44;;;;;;;9.20;3.40;;;;;;;-0.85;95.93;98362.98;109694;1249;68868;-71
2023/03/12 00:28:33;;;;;;;6.80;2.40;;;;;;;-0.78;96.14;98368.69;109789;1253;71329;-71
2023/03/12 00:31:26;;;;;;;8.10;3.30;;;;;;;-0.76;96.08;98365.06;109687;1249;57436;-71
2023/03/12 00:34:12;;;;;;;9.10;3.10;;;;;;;-0.71;95.53;98362.00;109649;1250;59118;-70
2023/03/12 00:36:59;;;;;;;8.10;2.70;;;;;;;-0.66;95.22;98375.13;109866;1251;72986;-71
2023/03/12 00:39:45;;;;;;;9.50;2.50;;;;;;;-0.62;94.66;98373.33;109819;1251;67215;-70
2023/03/12 00:42:32;;;;;;;9.80;2.50;;;;;;;-0.57;94.15;98381.05;109054;1249;1003026;-71
2023/03/12 00:45:18;;;;;;;8.10;2.20;;;;;;;-0.54;94.37;98378.58;109663;1252;58668;-70
2023/03/12 00:48:05;;;;;;;7.80;2.50;;;;;;;-0.52;94.85;98383.55;109661;1250;58570;-71
2023/03/12 00:50:52;;;;;;;6.20;2.00;;;;;;;-0.53;95.70;98385.50;109716;1251;74027;-70
2023/03/12 00:53:38;;;;;;;7.60;2.20;;;;;;;-0.55;96.77;98389.85;109784;1250;66305;-70
2023/03/12 00:56:25;;;;;;;8.00;2.20;;;;;;;-0.64;97.11;98388.06;109803;1251;71033;-71
2023/03/12 00:59:13;;;;;;;7.70;1.80;;;;;;;-0.70;96.71;98391.73;109776;1251;57448;-69
2023/03/12 01:01:59;;;;;;;6.40;1.70;;;;;;;-0.72;96.95;98395.54;109772;1251;58917;-69
2023/03/12 01:04:45;;;;;;;7.90;2.00;;;;;;;-0.78;97.40;98402.13;109646;1252;72818;-70
2023/03/12 01:07:32;;;;;;;6.40;1.70;;;;;;;-0.87;97.78;98403.32;109825;1251;68888;-70
2023/03/12 01:10:21;;;;;;;5.10;1.20;;;;;;;-0.94;98.03;98407.39;109594;1254;72658;-69
2023/03/12 01:13:08;;;;;;;4.60;1.10;;;;;;;-1.02;97.48;98412.16;109476;1251;59832;-70
2023/03/12 01:15:55;;;;;;;6.10;1.50;;;;;;;-1.10;96.65;98407.40;109807;1251;61581;-70
2023/03/12 01:18:41;;;;;;;5.60;1.20;;;;;;;-1.14;96.68;98400.17;109719;1251;74049;-70
2023/03/12 01:21:29;;;;;;;5.70;1.20;;;;;;;-1.19;96.53;98402.52;109689;1251;66611;-70
2023/03/12 01:24:15;;;;;;;4.80;1.30;;;;;;;-1.23;96.69;98396.30;109819;1251;71413;-71
2023/03/12 01:27:03;;;;;;;6.00;1.60;;;;;;;-1.27;97.19;98397.25;109816;1250;57537;-69
2023/03/12 01:29:50;;;;;;;3.90;1.20;;;;;;;-1.28;97.22;98397.30;109800;1251;60191;-69
2023/03/12 01:32:37;;;;;;;5.70;1.60;;;;;;;-1.29;97.58;98398.88;109808;1253;73077;-69
2023/03/12 01:35:24;;;;;;;5.50;1.60;;;;;;;-1.33;97.88;98388.68;109777;1249;67880;-70
2023/03/12 01:38:14;;;;;;;4.20;1.20;;;;;;;-1.37;97.97;98398.97;109661;1251;72611;-70
2023/03/12 01:41:00;;;;;;;5.30;1.30;;;;;;;-1.37;97.87;98394.64;109665;1250;57407;-70
2023/03/12 01:43:47;;;;;;;4.80;1.20;;;;;;;-1.34;97.63;98399.04;109699;1250;58171;-69
2023/03/12 01:46:42;;;;;;;4.80;1.20;;;;;;;-1.32;97.59;98400.98;109668;1253;73049;-69
2023/03/12 01:49:33;;;;;;;4.00;1.10;;;;;;;-1.31;97.53;98401.27;109714;1251;66249;-69
2023/03/12 01:52:34;;;;;;;5.30;1.30;;;;;;;-1.32;96.98;98405.88;109690;1251;72073;-69
2023/03/12 01:55:21;;;;;;;5.80;1.40;;;;;;;-1.29;96.21;98408.67;109670;1249;58483;-69
2023/03/12 01:58:07;;;;;;;6.80;1.70;;;;;;;-1.29;95.66;98410.75;109728;1249;61403;-71
2023/03/12 02:00:54;;;;;;;5.00;1.10;;;;;;;-1.32;95.28;98403.96;109664;1249;73069;-71
2023/03/12 02:03:42;;;;;;;5.60;1.40;;;;;;;-1.37;95.42;98410.33;109802;1251;68887;-71
2023/03/12 02:06:42;;;;;;;5.10;1.00;;;;;;;-1.42;95.23;98401.55;108896;1249;1002303;-73
2023/03/12 02:09:32;;;;;;;5.80;1.40;;;;;;;-1.49;95.22;98402.27;109628;1251;57387;-71
2023/03/12 02:12:19;;;;;;;6.00;1.50;;;;;;;-1.53;94.70;98399.36;109576;1250;60703;-72
2023/03/12 02:15:06;;;;;;;6.50;1.50;;;;;;;-1.59;94.29;98401.59;109824;1250;73994;-71
2023/03/12 02:17:53;;;;;;;6.50;1.30;;;;;;;-1.64;93.91;98405.73;109566;1251;67919;-70
2023/03/12 02:21:23;;;;;;;5.70;1.00;;;;;;;-1.69;93.46;98405.73;109525;1251;73895;-70
2023/03/12 02:24:35;;;;;;;5.40;1.30;;;;;;;-1.76;93.15;98408.95;109480;1251;57309;-71
2023/03/12 02:27:22;;;;;;;4.00;1.20;;;;;;;-1.82;92.83;98409.95;109720;1251;60247;-69
2023/03/12 02:30:14;;;;;;;6.70;1.40;;;;;;;-1.87;92.50;98411.94;109669;1251;72971;-70
2023/03/12 02:33:06;;;;;;;7.00;1.30;;;;;;;-1.91;92.23;98413.71;109594;1249;67855;-71
2023/03/12 02:35:54;;;;;;;7.50;1.30;;;;;;;-1.94;91.96;98419.23;108958;1249;1002931;-70
2023/03/12 02:38:46;;;;;;;9.00;1.40;;;;;;;-1.95;91.51;98417.07;109620;1251;58974;-72
2023/03/12 02:41:40;;;;;;;6.50;1.30;;;;;;;-1.98;91.25;98420.88;109541;1251;58814;-72
2023/03/12 02:44:33;;;;;;;6.70;1.40;;;;;;;-2.00;90.65;98428.27;108849;1251;1002214;-71
2023/03/12 02:47:19;;;;;;;10.20;1.50;;;;;;;-2.00;90.49;98431.25;109518;1251;66697;-71
2023/03/12 02:50:07;;;;;;;7.40;1.20;;;;;;;-2.00;89.83;98433.19;108910;1251;1002175;-70
2023/03/12 02:52:54;;;;;;;5.20;1.30;;;;;;;-2.02;88.89;98424.39;108891;1250;1003021;-70
2023/03/12 02:55:40;;;;;;;5.90;1.50;;;;;;;-2.01;88.49;98431.99;109703;1250;59323;-70
2023/03/12 02:58:26;;;;;;;5.60;1.60;;;;;;;-2.03;88.37;98431.73;109850;1251;73909;-72
2023/03/12 03:01:13;;;;;;;8.60;1.30;;;;;;;-2.06;88.59;98435.18;109718;1250;67860;-70
2023/03/12 03:04:03;;;;;;;6.60;1.30;;;;;;;-2.10;88.87;98443.58;109553;1250;72568;-69
2023/03/12 03:06:49;;;;;;;5.30;1.30;;;;;;;-2.15;89.26;98442.44;109839;1250;57329;-68
2023/03/12 03:09:36;;;;;;;9.70;1.60;;;;;;;-2.21;89.54;98449.86;109796;1251;61368;-69
2023/03/12 03:12:23;;;;;;;6.90;1.50;;;;;;;-2.26;89.58;98457.90;109686;1250;72946;-70
2023/03/12 03:15:10;;;;;;;8.10;1.40;;;;;;;-2.28;89.74;98462.20;109681;1249;68848;-70
2023/03/12 03:17:58;;;;;;;7.60;1.40;;;;;;;-2.30;89.60;98461.61;109636;1251;72709;-71
2023/03/12 03:20:44;;;;;;;8.80;1.60;;;;;;;-2.32;89.47;98462.73;109710;1250;57794;-71
2023/03/12 03:23:32;;;;;;;7.30;1.50;;;;;;;-2.35;89.33;98464.82;109820;1251;60307;-69
2023/03/12 03:26:22;;;;;;;5.90;1.70;;;;;;;-2.37;89.29;98469.28;109681;1249;74013;-70
2023/03/12 03:29:09;;;;;;;4.60;1.20;;;;;;;-2.41;89.15;98474.17;109698;1250;67683;-70
2023/03/12 03:31:56;;;;;;;5.40;1.40;;;;;;;-2.45;89.20;98476.41;109646;1251;72721;-70
2023/03/12 03:34:42;;;;;;;6.30;1.20;;;;;;;-2.44;89.49;98492.67;109784;1251;57269;-70
2023/03/12 03:37:29;;;;;;;7.00;1.50;;;;;;;-2.37;90.24;98496.36;109362;1254;59131;-70
2023/03/12 03:40:15;;;;;;;7.10;1.60;;;;;;;-2.30;88.93;98483.02;108756;1254;1002868;-70
2023/03/12 03:43:02;;;;;;;7.40;1.50;;;;;;;-2.27;88.48;98485.97;109444;1254;67877;-71
2023/03/12 03:45:56;;;;;;;5.40;1.40;;;;;;;-2.28;88.53;98489.30;109462;1254;72791;-71
2023/03/12 03:48:42;;;;;;;4.30;1.10;;;;;;;-2.30;88.66;98485.40;109241;1254;57385;-71
2023/03/12 03:51:29;;;;;;;6.50;1.40;;;;;;;-2.31;88.61;98493.82;109420;1254;60469;-72
2023/03/12 03:54:19;;;;;;;9.40;1.60;;;;;;;-2.36;88.41;98492.16;108526;1254;1002092;-70
2023/03/12 03:57:05;;;;;;;7.50;1.50;;;;;;;-2.37;88.30;98492.70;109154;1254;67629;-69
2023/03/12 03:59:52;;;;;;;6.10;1.70;;;;;;;-2.32;88.87;98506.91;109387;1254;72685;-71
2023/03/12 04:02:38;;;;;;;4.30;1.20;;;;;;;-2.26;89.06;98507.65;109347;1254;57330;-71
2023/03/12 04:05:26;;;;;;;5.30;1.20;;;;;;;-2.21;89.19;98513.96;109397;1254;61339;-70
2023/03/12 04:08:13;;;;;;;6.30;1.20;;;;;;;-2.16;89.19;98515.46;108769;1250;1002216;-70
2023/03/12 04:11:07;;;;;;;4.80;1.10;;;;;;;-2.13;88.80;98512.73;108998;1253;1003032;-70
2023/03/12 04:13:54;;;;;;;6.80;1.40;;;;;;;-2.12;88.40;98511.08;109630;1249;72775;-70
2023/03/12 04:16:42;;;;;;;7.80;1.50;;;;;;;-2.10;87.91;98514.45;108923;1250;1002975;-69
2023/03/12 04:19:30;;;;;;;10.10;1.20;;;;;;;-2.09;87.45;98514.95;109550;1254;58955;-71
2023/03/12 04:22:17;;;;;;;6.00;1.30;;;;;;;-2.08;86.68;98513.86;109697;1251;74252;-71
2023/03/12 04:25:06;;;;;;;4.60;1.20;;;;;;;-2.09;86.27;98514.58;109720;1251;68804;-70
2023/03/12 04:27:53;;;;;;;5.10;1.30;;;;;;;-2.11;85.60;98515.92;108882;1253;1002219;-71
2023/03/12 04:30:39;;;;;;;5.60;1.30;;;;;;;-2.14;85.12;98513.64;109666;1249;58809;-72
2023/03/12 04:33:33;;;;;;;4.60;1.00;;;;;;;-2.16;85.23;98509.02;108924;1251;1002194;-70
2023/03/12 04:36:20;;;;;;;5.40;1.20;;;;;;;-2.18;85.87;98510.52;109646;1250;71766;-70
2023/03/12 04:39:08;;;;;;;7.90;1.30;;;;;;;-2.25;86.01;98514.00;109808;1249;68886;-70
2023/03/12 04:41:56;;;;;;;7.50;1.30;;;;;;;-2.30;85.72;98514.43;108874;1251;1003082;-71
2023/03/12 04:44:43;;;;;;;5.80;2.00;;;;;;;-2.33;85.59;98511.83;109600;1251;58772;-69
2023/03/12 04:47:32;;;;;;;8.60;1.30;;;;;;;-2.38;85.46;98513.27;109643;1251;61256;-70
2023/03/12 04:50:19;;;;;;;7.40;1.30;;;;;;;-2.42;85.49;98508.42;109629;1250;73204;-71
2023/03/12 04:53:05;;;;;;;8.60;1.60;;;;;;;-2.45;85.32;98505.79;109697;1250;68258;-73
2023/03/12 04:55:52;;;;;;;6.30;1.40;;;;;;;-2.47;85.31;98510.58;109682;1251;71301;-71
2023/03/12 04:58:39;;;;;;;7.50;1.40;;;;;;;-2.49;85.36;98522.81;109550;1251;57339;-71
2023/03/12 05:01:33;;;;;;;5.70;1.10;;;;;;;-2.48;85.74;98539.13;109534;1250;60243;-72
2023/03/12 05:04:22;;;;;;;7.90;1.90;;;;;;;-2.44;85.68;98544.64;109674;1250;71781;-71
2023/03/12 05:07:09;;;;;;;6.90;1.50;;;;;;;-2.38;85.61;98539.52;108841;1251;1002483;-73
2023/03/12 05:09:55;;;;;;;4.40;1.00;;;;;;;-2.35;85.29;98538.66;109568;1251;72535;-74
2023/03/12 05:12:42;;;;;;;5.20;1.40;;;;;;;-2.32;84.75;98533.64;109701;1251;58018;-72
2023/03/12 05:15:28;;;;;;;5.10;1.20;;;;;;;-2.32;84.46;98538.16;109602;1251;60190;-73
2023/03/12 05:18:16;;;;;;;7.40;1.40;;;;;;;-2.31;84.46;98546.48;109601;1251;73133;-73
2023/03/12 05:21:11;;;;;;;6.20;1.20;;;;;;;-2.30;84.47;98565.85;109695;1250;69158;-71
2023/03/12 05:23:58;;;;;;;7.00;1.40;;;;;;;-2.27;84.88;98578.05;109682;1250;72759;-71
2023/03/12 05:26:46;;;;;;;7.00;1.40;;;;;;;-2.23;84.83;98573.70;109540;1251;57392;-73
2023/03/12 05:29:38;;;;;;;8.30;1.60;;;;;;;-2.19;84.89;98571.25;109581;1251;61504;-71
2023/03/12 05:32:25;;;;;;;6.00;1.40;;;;;;;-2.15;84.90;98573.65;109583;1252;72915;-73
2023/03/12 05:35:12;;;;;;;6.30;1.30;;;;;;;-2.14;84.82;98575.88;109562;1253;66581;-67
2023/03/12 05:37:59;;;;;;;5.60;1.30;;;;;;;-2.11;84.73;98576.55;109554;1250;72655;-71
2023/03/12 05:40:53;;;;;;;6.70;1.30;;;;;;;-2.05;84.31;98583.23;108823;1251;1002184;-69
2023/03/12 05:43:40;;;;;;;6.90;1.30;;;;;;;-2.01;83.95;98588.44;109635;1250;60524;-71
2023/03/12 05:46:28;;;;;;;5.20;1.30;;;;;;;-2.00;83.36;98589.76;109685;1250;73328;-71
2023/03/12 05:49:14;;;;;;;5.80;1.20;;;;;;;-2.03;82.59;98578.97;109834;1250;66664;-70
2023/03/12 05:52:01;;;;;;;6.50;1.40;;;;;;;-2.05;82.42;98582.33;109804;1249;72459;-71
2023/03/12 05:54:47;;;;;;;7.40;1.70;;;;;;;-2.06;82.05;98580.66;109612;1253;57388;-72
2023/03/12 05:57:34;;;;;;;6.00;1.30;;;;;;;-1.97;81.46;98588.06;109747;1250;60357;-71
2023/03/12 06:00:21;;;;;;;5.90;1.50;;;;;;;-1.90;80.51;98593.43;109630;1250;72989;-71
2023/03/12 06:03:13;;;;;;;7.40;1.30;;;;;;;-1.92;78.63;98593.22;109568;1251;68430;-71
2023/03/12 06:06:00;;;;;;;5.30;1.00;;;;;;;-1.93;77.35;98595.34;109583;1250;72404;-69
2023/03/12 06:08:48;;;;;;;5.20;1.20;;;;;;;-1.93;75.41;98598.13;109599;1251;57302;-72
2023/03/12 06:11:34;;;;;;;5.80;1.30;;;;;;;-1.87;74.44;98609.63;108831;1251;1002265;-74
2023/03/12 06:14:21;;;;;;;8.30;1.90;;;;;;;-1.58;74.17;98616.03;109571;1251;73881;-74
2023/03/12 06:17:08;;;;;;;5.80;1.40;;;;;;;-1.34;73.99;98618.80;109683;1251;67878;-73
2023/03/12 06:19:55;;;;;;;6.00;1.40;;;;;;;-1.27;74.40;98622.80;109646;1249;71375;-73
2023/03/12 06:22:41;;;;;;;5.50;1.10;;;;;;;-1.28;73.97;98626.48;109594;1249;57297;-73
2023/03/12 06:25:28;;;;;;;7.80;1.50;;;;;;;-1.29;74.56;98646.91;108914;1250;1002421;-71
2023/03/12 06:28:16;;;;;;;8.10;1.40;;;;;;;-1.32;75.21;98676.13;109619;1250;74102;-72
2023/03/12 06:31:05;;;;;;;5.50;1.50;;;;;;;-1.40;79.11;98694.09;108935;1250;1002762;-70
2023/03/12 06:33:52;;;;;;;4.60;1.10;;;;;;;-1.61;85.03;98705.02;109651;1251;72653;-71
2023/03/12 06:36:39;;;;;;;5.90;1.10;;;;;;;-1.82;87.24;98701.88;109748;1250;58674;-69
2023/03/12 06:39:26;;;;;;;6.20;1.40;;;;;;;-1.89;87.65;98699.44;109830;1249;59998;-72
2023/03/12 06:42:13;;;;;;;4.70;1.20;;;;;;;-1.98;87.21;98704.73;109686;1250;71747;-72
2023/03/12 06:44:59;;;;;;;4.70;1.40;;;;;;;-2.02;87.09;98698.69;109690;1250;69223;-70
2023/03/12 06:47:46;;;;;;;4.60;1.20;;;;;;;-2.00;86.81;98689.73;109624;1250;71254;-70
2023/03/12 06:50:33;;;;;;;4.80;1.20;;;;;;;-1.91;85.06;98693.11;109630;1250;58216;-71
2023/03/12 06:53:21;;;;;;;5.20;1.40;;;;;;;-1.76;83.62;98689.41;109627;1250;61355;-70
2023/03/12 06:56:10;;;;;;;6.50;1.60;;;;;;;-1.51;82.57;98689.77;109581;1251;74013;-70
2023/03/12 06:58:56;;;;;;;6.40;2.10;;;;;;;-1.28;80.88;98686.01;109594;1250;67636;-74
2023/03/12 07:01:43;;;;;;;8.20;1.60;;;;;;;-1.13;79.05;98689.09;109555;1251;72466;-71
2023/03/12 07:04:29;;;;;;;4.20;1.20;;;;;;;-0.94;77.57;98685.66;108902;1250;1002161;-73
2023/03/12 07:07:17;;;;;;;7.20;1.40;;;;;;;-0.60;75.08;98686.77;109638;1250;61196;-71
2023/03/12 07:10:05;;;;;;;5.30;1.40;;;;;;;0.96;72.61;98684.58;109678;1250;72922;-72
2023/03/12 07:12:51;;;;;;;17.50;4.80;;;;;;;3.13;63.87;98674.33;109650;1250;69250;-72
2023/03/12 07:15:38;;;;;;;20.80;5.70;;;;;;;4.87;56.89;98679.39;109530;1250;73115;-71
2023/03/12 07:18:25;;;;;;;12.00;3.30;;;;;;;4.26;55.84;98692.33;109617;1250;57610;-71
2023/03/12 07:21:11;;;;;;;24.60;5.30;;;;;;;3.19;60.05;98716.70;109684;1250;58846;-70
2023/03/12 07:23:59;;;;;;;21.00;4.60;;;;;;;2.03;65.81;98734.30;109612;1250;71652;-70
2023/03/12 07:26:45;;;;;;;15.20;3.80;;;;;;;1.14;71.51;98747.46;109584;1251;68775;-69
2023/03/12 07:29:32;;;;;;;11.90;3.10;;;;;;;0.48;74.57;98747.81;109664;1250;72485;-71
2023/03/12 07:32:18;;;;;;;9.80;2.90;;;;;;;0.02;77.22;98753.50;109628;1251;58119;-71
2023/03/12 07:35:05;;;;;;;9.10;2.30;;;;;;;-0.24;79.08;98754.78;109578;1250;60065;-71
2023/03/12 07:37:51;;;;;;;6.40;1.90;;;;;;;-0.53;79.97;98758.26;109658;1250;73039;-71
2023/03/12 07:40:38;;;;;;;6.20;1.80;;;;;;;-0.92;81.41;98754.15;109695;1250;68773;-72
2023/03/12 07:43:26;;;;;;;7.20;1.40;;;;;;;-1.19;83.06;98752.04;109659;1250;73805;-72
2023/03/12 07:46:14;;;;;;;5.80;1.40;;;;;;;-1.27;84.06;98748.59;109060;1249;1002642;-73
2023/03/12 07:49:00;;;;;;;6.80;1.40;;;;;;;-1.18;84.71;98753.37;108962;1252;1002375;-72
2023/03/12 07:51:47;;;;;;;7.00;1.40;;;;;;;-0.89;84.21;98748.21;109013;1250;1002110;-73
2023/03/12 07:54:33;;;;;;;6.90;1.30;;;;;;;-0.63;82.70;98749.33;109804;1249;69129;-71
2023/03/12 07:57:21;;;;;;;6.20;1.20;;;;;;;-0.53;81.62;98751.96;109767;1249;70759;-70
2023/03/12 08:00:09;;;;;;;6.50;1.40;;;;;;;-0.55;81.23;98745.78;109615;1249;57458;-73
2023/03/12 08:02:59;;;;;;;8.30;1.80;;;;;;;0.20;80.21;98750.00;109814;1250;59023;-72
2023/03/12 08:06:03;;;;;;;7.10;2.00;;;;;;;2.56;74.76;98750.09;109481;1251;73135;-71
2023/03/12 08:08:50;;;;;;;8.10;2.50;;;;;;;5.16;66.98;98746.17;109650;1249;67757;-70
2023/03/12 08:11:37;;;;;;;8.90;2.80;;;;;;;7.13;59.70;98737.07;109763;1250;71502;-70
2023/03/12 08:14:23;;;;;;;8.90;2.50;;;;;;;7.14;52.80;98737.36;109540;1251;57593;-68
2023/03/12 08:17:10;;;;;;;12.00;3.20;;;;;;;6.92;50.17;98737.20;109773;1249;61298;-70
2023/03/12 08:19:57;;;;;;;10.80;2.60;;;;;;;6.02;50.41;98748.05;109769;1250;73123;-71
2023/03/12 08:22:44;;;;;;;8.30;2.00;;;;;;;4.89;53.69;98750.53;109791;1249;67676;-75
2023/03/12 08:25:30;;;;;;;6.90;1.90;;;;;;;5.12;54.44;98754.77;109752;1251;72678;-71
2023/03/12 08:28:18;;;;;;;7.40;2.10;;;;;;;6.56;49.52;98743.71;109709;1249;57335;-70
2023/03/12 08:31:05;;;;;;;8.30;2.10;;;;;;;6.41;48.76;98754.11;109648;1249;60087;-69
2023/03/12 08:33:52;;;;;;;10.50;3.10;;;;;;;6.54;47.30;98762.25;109844;1249;72699;-73
2023/03/12 08:36:38;;;;;;;17.10;2.80;;;;;;;6.55;46.96;98777.48;109633;1249;67005;-72
2023/03/12 08:39:25;;;;;;;10.80;3.00;;;;;;;8.08;44.67;98785.02;109624;1252;72456;-73
2023/03/12 08:42:12;;;;;;;11.40;3.20;;;;;;;9.80;42.00;98781.02;109746;1249;57743;-73
2023/03/12 08:44:58;;;;;;;10.10;2.60;;;;;;;11.05;38.53;98774.55;109742;1250;60064;-70
2023/03/12 08:47:45;;;;;;;9.40;2.60;;;;;;;11.65;36.44;98775.31;109693;1250;73021;-74
2023/03/12 08:50:32;;;;;;;10.60;3.90;;;;;;;12.80;34.17;98775.27;109714;1250;67640;-72
2023/03/12 08:53:19;;;;;;;9.20;2.40;;;;;;;13.80;32.37;98775.23;109639;1250;72563;-70
2023/03/12 08:56:06;;;;;;;8.70;2.00;;;;;;;13.03;31.80;98780.27;109627;1250;57928;-75
2023/03/12 08:58:52;;;;;;;8.30;2.20;;;;;;;12.16;33.31;98788.00;109706;1250;60248;-70
2023/03/12 09:01:39;;;;;;;8.90;2.60;;;;;;;11.45;34.08;98790.84;109686;1250;73083;-74
2023/03/12 09:04:29;;;;;;;6.80;1.60;;;;;;;12.31;32.87;98790.81;109574;1250;66892;-75
2023/03/12 09:07:20;;;;;;;7.60;1.70;;;;;;;13.03;31.80;98797.55;109671;1250;71148;-74
2023/03/12 09:10:08;;;;;;;5.80;1.50;;;;;;;13.71;30.14;98794.66;109637;1250;59154;-74
2023/03/12 09:12:55;;;;;;;6.70;1.60;;;;;;;13.80;29.55;98802.90;109722;1250;58836;-72
2023/03/12 09:15:42;;;;;;;6.40;1.60;;;;;;;12.67;30.18;98804.95;109697;1250;72909;-73
2023/03/12 09:18:29;;;;;;;6.50;1.70;;;;;;;11.87;30.82;98811.96;109512;1250;66410;-76
2023/03/12 09:21:16;;;;;;;6.60;1.80;;;;;;;11.35;31.01;98817.30;109717;1250;73482;-77
2023/03/12 09:24:03;;;;;;;7.80;1.90;;;;;;;11.77;30.07;98825.48;109693;1250;57873;-77
2023/03/12 09:26:49;;;;;;;6.70;1.50;;;;;;;11.10;28.68;98835.63;109768;1250;59319;-71
2023/03/12 09:29:36;;;;;;;5.90;1.20;;;;;;;9.67;29.98;98848.27;109580;1250;72813;-72
2023/03/12 09:32:32;;;;;;;6.70;1.40;;;;;;;8.39;32.05;98853.24;109633;1250;67956;-69
2023/03/12 09:35:19;;;;;;;6.30;1.30;;;;;;;7.53;33.18;98863.54;109531;1250;73607;-71
2023/03/12 09:38:06;;;;;;;6.90;1.40;;;;;;;7.42;33.55;98865.77;109650;1250;57318;-74
2023/03/12 09:40:53;;;;;;;5.20;1.20;;;;;;;7.18;32.96;98860.66;109570;1251;60214;-74
2023/03/12 09:43:49;;;;;;;5.40;1.50;;;;;;;6.82;33.88;98872.05;109565;1250;72922;-72
2023/03/12 09:46:50;;;;;;;7.80;1.70;;;;;;;7.54;32.57;98877.08;109563;1251;67787;-77
2023/03/12 09:49:45;;;;;;;11.40;4.80;;;;;;;7.41;32.65;98874.96;109538;1251;73126;-79
2023/03/12 09:53:04;;;;;;;8.00;2.20;;;;;;;7.94;32.60;98881.66;109636;1251;57323;-75
2023/03/12 09:55:54;;;;;;;6.40;1.70;;;;;;;9.85;30.69;98878.02;109624;1251;60234;-75
2023/03/12 09:58:43;;;;;;;5.20;1.20;;;;;;;9.37;29.90;98895.60;109614;1250;74059;-76
2023/03/12 10:01:56;;;;;;;4.60;1.10;;;;;;;8.53;30.02;98891.99;109697;1251;67777;-73
2023/03/12 10:05:30;;;;;;;7.80;1.40;;;;;;;9.13;29.27;98893.84;109605;1251;71223;-73
2023/03/12 10:08:52;;;;;;;6.10;1.40;;;;;;;11.63;27.00;98885.45;109509;1250;57960;-79
2023/03/12 10:12:02;;;;;;;6.90;1.60;;;;;;;13.36;25.15;98893.42;109561;1251;60140;-77
2023/03/12 10:15:39;;;;;;;5.30;1.30;;;;;;;14.43;22.49;98885.24;109632;1251;73110;-76
2023/03/12 10:18:57;;;;;;;6.40;1.10;;;;;;;14.96;21.03;98891.59;109036;1258;66294;-75
2023/03/12 10:21:53;;;;;;;6.50;1.30;;;;;;;16.36;20.52;98882.61;108977;1259;73751;-74
2023/03/12 10:25:06;;;;;;;6.30;1.30;;;;;;;17.26;20.59;98891.38;109067;1258;57349;-73
2023/03/12 10:27:59;;;;;;;7.20;1.40;;;;;;;18.38;19.32;98888.61;108991;1259;60133;-78
2023/03/12 10:30:56;;;;;;;7.00;1.30;;;;;;;18.86;18.55;98898.73;108923;1260;71572;-71
2023/03/12 10:33:58;;;;;;;5.80;1.20;;;;;;;19.30;18.56;98904.90;108947;1259;68923;-74
2023/03/12 10:36:45;;;;;;;6.50;1.50;;;;;;;18.75;17.86;98901.29;108954;1260;71135;-79
2023/03/12 10:39:31;;;;;;;5.60;1.60;;;;;;;18.49;18.29;98914.21;108840;1260;57807;-73
2023/03/12 10:42:23;;;;;;;5.50;1.10;;;;;;;17.54;17.96;98928.60;108930;1260;58886;-76
2023/03/12 10:45:09;;;;;;;6.10;1.30;;;;;;;15.34;19.45;98924.17;109016;1259;71599;-77
2023/03/12 10:48:24;;;;;;;6.90;1.30;;;;;;;13.55;21.01;98938.29;109085;1259;67826;-76
2023/03/12 10:51:12;;;;;;;4.80;1.10;;;;;;;11.75;22.96;98943.81;108954;1254;70444;-76
2023/03/12 10:53:58;;;;;;;6.00;1.20;;;;;;;12.67;23.22;98939.25;109207;1254;58443;-77
2023/03/12 10:56:50;;;;;;;9.00;1.60;;;;;;;12.10;23.46;98945.92;109226;1254;59130;-74
2023/03/12 10:59:43;;;;;;;7.30;1.50;;;;;;;10.80;25.26;98945.96;109270;1254;71715;-73
2023/03/12 11:02:42;;;;;;;6.80;1.80;;;;;;;10.00;26.78;98954.35;109614;1250;66292;-79
2023/03/12 11:05:47;;;;;;;6.10;1.40;;;;;;;9.48;28.35;98957.34;109640;1250;71465;-75
2023/03/12 11:08:36;;;;;;;6.00;1.20;;;;;;;9.82;27.75;98962.36;109464;1250;57367;-77
2023/03/12 11:11:32;;;;;;;7.80;1.50;;;;;;;9.74;27.50;98965.42;109612;1250;59028;-77
2023/03/12 11:14:20;;;;;;;7.60;1.60;;;;;;;9.26;27.77;98964.05;109380;1250;72265;-78
2023/03/12 11:17:21;;;;;;;7.30;1.50;;;;;;;9.07;26.85;98959.45;109520;1251;67676;-78
2023/03/12 11:20:20;;;;;;;7.10;1.50;;;;;;;9.03;26.52;98964.31;109437;1251;72588;-77
2023/03/12 11:23:20;;;;;;;5.10;1.30;;;;;;;9.76;25.47;98963.31;109517;1251;58376;-77
2023/03/12 11:26:18;;;;;;;6.40;1.30;;;;;;;9.97;24.63;98967.10;109652;1249;60278;-78
2023/03/12 11:29:27;;;;;;;5.00;1.30;;;;;;;10.02;24.82;98962.64;109645;1250;72978;-80
2023/03/12 11:32:37;;;;;;;6.70;1.50;;;;;;;10.62;25.47;98963.61;109680;1251;68702;-81
2023/03/12 11:36:03;;;;;;;6.00;1.10;;;;;;;12.02;25.14;98968.52;109789;1250;72538;-76
2023/03/12 11:39:17;;;;;;;6.30;1.20;;;;;;;11.91;23.10;98979.33;109661;1250;58769;-75
2023/03/12 11:42:27;;;;;;;4.60;1.10;;;;;;;11.79;21.66;98980.73;109827;1249;59261;-75
2023/03/12 11:45:56;;;;;;;6.50;1.50;;;;;;;11.40;23.44;98980.80;109845;1250;70519;-76
2023/03/12 11:49:05;;;;;;;6.60;1.30;;;;;;;11.44;24.22;98985.84;107389;1249;3156345;-77
2023/03/12 11:52:35;;;;;;;6.70;1.20;;;;;;;11.26;24.43;98988.27;109792;1250;72636;-75
2023/03/12 11:55:34;;;;;;;6.20;1.20;;;;;;;10.93;24.76;98983.40;109496;1251;57689;-74
2023/03/12 11:58:49;;;;;;;6.30;1.40;;;;;;;9.63;26.34;98991.08;109621;1251;60036;-77
2023/03/12 12:02:17;;;;;;;6.50;1.70;;;;;;;8.22;28.46;98985.66;109639;1250;74069;-73
2023/03/12 12:05:44;;;;;;;7.00;1.50;;;;;;;7.31;30.03;98999.73;109699;1249;69011;-76
2023/03/12 12:09:04;;;;;;;6.20;1.50;;;;;;;7.66;30.04;98997.59;109826;1250;71028;-80
2023/03/12 12:12:05;;;;;;;7.30;1.50;;;;;;;7.95;28.83;99004.87;109617;1250;58981;-72
2023/03/12 12:15:16;;;;;;;5.60;1.60;;;;;;;8.34;27.06;99002.48;109563;1250;58832;-75
2023/03/12 12:18:30;;;;;;;7.10;1.30;;;;;;;8.80;26.78;99003.16;109656;1250;71410;-81
2023/03/12 12:21:19;;;;;;;5.90;1.30;;;;;;;9.17;26.43;99009.65;109658;1250;67227;-74
2023/03/12 12:24:29;;;;;;;5.80;1.30;;;;;;;9.16;26.34;99009.92;109668;1251;72621;-79
2023/03/12 12:27:25;;;;;;;7.50;1.50;;;;;;;8.97;26.30;99015.50;109551;1251;58063;-74
2023/03/12 12:30:16;;;;;;;7.40;1.60;;;;;;;8.80;26.34;99023.71;109717;1251;58998;-74
2023/03/12 12:33:16;;;;;;;6.50;1.40;;;;;;;8.48;26.26;99017.36;109668;1250;71822;-74
2023/03/12 12:36:02;;;;;;;5.80;1.20;;;;;;;8.07;26.71;99026.33;109553;1250;68670;-78
2023/03/12 12:39:00;;;;;;;5.40;1.00;;;;;;;7.67;27.90;99027.48;109607;1251;71820;-78
2023/03/12 12:41:53;;;;;;;6.30;1.60;;;;;;;7.29;28.43;99033.01;109421;1251;58723;-80
2023/03/12 12:44:47;;;;;;;8.50;1.60;;;;;;;6.96;29.39;99036.52;109548;1251;60276;-73
2023/03/12 12:47:44;;;;;;;7.90;2.00;;;;;;;6.60;30.07;99035.13;109497;1250;71563;-73
2023/03/12 12:50:37;;;;;;;6.60;1.80;;;;;;;6.29;31.13;99045.00;109591;1253;66695;-74
2023/03/12 12:53:54;;;;;;;6.60;1.70;;;;;;;6.00;31.75;99044.57;109580;1251;73556;-76
2023/03/12 12:56:46;;;;;;;8.00;1.70;;;;;;;5.77;32.95;99044.99;109461;1251;57446;-74
2023/03/12 12:59:50;;;;;;;7.30;1.50;;;;;;;5.33;33.27;99046.42;109629;1251;60139;-82
2023/03/12 13:02:41;;;;;;;6.70;1.40;;;;;;;5.19;34.51;99054.48;109730;1251;71310;-81
2023/03/12 13:05:44;;;;;;;6.70;1.80;;;;;;;4.97;35.76;99062.30;109599;1251;65805;-79
2023/03/12 13:08:43;;;;;;;8.60;1.50;;;;;;;4.76;36.82;99060.08;109582;1250;72864;-74
2023/03/12 13:11:45;;;;;;;9.00;2.10;;;;;;;4.48;37.39;99055.55;109583;1251;57381;-76
2023/03/12 13:14:38;;;;;;;9.40;2.00;;;;;;;4.33;37.97;99060.55;109423;1251;59017;-78
2023/03/12 13:17:29;;;;;;;9.30;2.20;;;;;;;4.18;38.40;99072.47;109719;1250;71554;-76